Time;durP1;ratioP1;P1;durP2;ratioP2;P2;SDS_P1;SDS_P2;PMS_P1;PMS_P2;Temp;Humidity;BMP_temperature;BMP_pressure;BME280_temperature;BME280_humidity;BME280_pressure;Samples;Min_cycle;Max_cycle;Signal;HPM_P1;HPM_P2
2022/03/05 00:02:17;;;;;;;27.70;15.33;;;;;;;-3.59;86.82;101842.00;10354997;28;20125;-84
2022/03/05 00:07:21;;;;;;;40.87;20.27;;;;;;;-3.61;87.03;101844.34;10326319;28;20045;-84
2022/03/05 00:12:21;;;;;;;35.08;17.58;;;;;;;-3.73;86.75;101851.47;10369449;28;20045;-84
2022/03/05 00:17:22;;;;;;;35.50;19.70;;;;;;;-3.85;86.78;101843.22;10353769;28;20061;-84
2022/03/05 00:22:22;;;;;;;31.00;19.10;;;;;;;-3.88;86.66;101847.97;10301172;28;20418;-83
2022/03/05 00:27:23;;;;;;;30.03;16.20;;;;;;;-4.06;86.53;101850.84;10343595;28;20068;-83
2022/03/05 00:32:24;;;;;;;35.00;18.40;;;;;;;-4.14;87.05;101855.06;10373853;28;20022;-83
2022/03/05 00:37:24;;;;;;;39.17;20.50;;;;;;;-4.04;86.77;101852.88;10328436;28;20030;-83
2022/03/05 00:42:25;;;;;;;40.10;17.83;;;;;;;-4.09;86.99;101846.31;10315707;28;20109;-83
2022/03/05 00:47:25;;;;;;;34.73;18.70;;;;;;;-4.16;87.42;101856.50;10342832;28;20046;-83
2022/03/05 00:52:26;;;;;;;35.40;19.97;;;;;;;-3.95;87.38;101854.72;10356963;28;20030;-83
2022/03/05 00:57:26;;;;;;;34.20;16.57;;;;;;;-4.01;87.80;101860.00;10343850;28;20048;-83
2022/03/05 01:02:27;;;;;;;31.93;17.83;;;;;;;-3.94;88.19;101859.13;10336737;28;20123;-83
2022/03/05 01:07:27;;;;;;;34.23;18.33;;;;;;;-3.98;87.88;101857.81;10326860;28;20474;-83
2022/03/05 01:12:28;;;;;;;34.30;19.37;;;;;;;-3.98;88.13;101847.59;10315619;28;20053;-83
2022/03/05 01:17:28;;;;;;;37.50;17.93;;;;;;;-4.04;88.49;101845.22;10356723;28;20053;-82
2022/03/05 01:22:29;;;;;;;40.60;21.90;;;;;;;-3.92;88.46;101847.44;10372860;28;20552;-83
2022/03/05 01:27:29;;;;;;;32.17;19.43;;;;;;;-4.03;88.79;101841.94;10346705;28;20065;-83
2022/03/05 01:32:30;;;;;;;33.73;21.47;;;;;;;-4.13;88.63;101842.44;10319225;28;20478;-83
2022/03/05 01:37:31;;;;;;;25.80;13.53;;;;;;;-4.18;88.15;101835.84;10347074;28;20060;-83
2022/03/05 01:42:33;;;;;;;34.03;18.87;;;;;;;-4.00;88.10;101838.81;10309567;28;20515;-84
2022/03/05 01:47:36;;;;;;;40.45;20.13;;;;;;;-4.01;88.09;101835.34;10345896;28;20054;-84
2022/03/05 01:52:37;;;;;;;39.80;20.73;;;;;;;-4.03;88.15;101838.44;10314536;28;20118;-84
2022/03/05 01:57:38;;;;;;;23.97;12.17;;;;;;;-4.06;88.31;101838.06;10338162;28;20113;-82
2022/03/05 02:02:39;;;;;;;39.37;19.47;;;;;;;-4.02;88.11;101835.16;10335649;28;20022;-82
2022/03/05 02:07:39;;;;;;;34.60;19.75;;;;;;;-4.09;87.69;101838.63;10332582;28;20034;-82
2022/03/05 02:12:40;;;;;;;23.50;13.67;;;;;;;-4.22;87.79;101838.75;10322494;28;20041;-82
2022/03/05 02:17:40;;;;;;;32.10;16.90;;;;;;;-4.32;87.80;101840.91;10362673;28;20076;-84
2022/03/05 02:22:41;;;;;;;35.70;18.17;;;;;;;-4.34;87.81;101837.25;10361823;28;20041;-84
2022/03/05 02:27:43;;;;;;;30.93;18.90;;;;;;;-4.41;87.71;101833.06;10354902;28;20035;-84
2022/03/05 02:32:43;;;;;;;40.03;20.17;;;;;;;-4.49;87.98;101841.41;10320365;28;20698;-84
2022/03/05 02:37:44;;;;;;;30.83;14.47;;;;;;;-4.58;88.08;101828.41;10344214;28;20176;-84
2022/03/05 02:42:44;;;;;;;32.30;17.93;;;;;;;-4.60;88.01;101829.84;10360419;28;20446;-84
2022/03/05 02:47:45;;;;;;;38.23;19.93;;;;;;;-4.66;88.10;101835.13;10358225;28;20074;-84
2022/03/05 02:52:45;;;;;;;29.20;14.07;;;;;;;-4.59;88.20;101831.69;10361030;28;20390;-84
2022/03/05 02:57:46;;;;;;;39.00;18.97;;;;;;;-4.69;88.11;101821.06;10355404;28;20112;-84
2022/03/05 03:02:46;;;;;;;35.50;18.07;;;;;;;-4.82;88.45;101819.53;10287771;28;20034;-84
2022/03/05 03:07:47;;;;;;;43.57;19.33;;;;;;;-4.87;88.61;101820.59;10340291;28;20029;-84
2022/03/05 03:12:47;;;;;;;32.50;19.63;;;;;;;-5.01;88.25;101822.34;10324231;28;20037;-84
2022/03/05 03:17:49;;;;;;;41.70;18.03;;;;;;;-5.10;88.46;101825.41;10356942;28;20117;-84
2022/03/05 03:22:49;;;;;;;48.75;22.85;;;;;;;-5.14;88.65;101818.97;10359805;28;20042;-84
2022/03/05 03:27:50;;;;;;;38.33;19.33;;;;;;;-5.16;89.09;101815.31;10373875;28;20034;-84
2022/03/05 03:32:51;;;;;;;47.77;23.63;;;;;;;-5.12;89.05;101821.75;10358618;28;20084;-84
2022/03/05 03:37:51;;;;;;;40.77;22.60;;;;;;;-5.22;88.93;101815.47;10332856;28;20474;-84
2022/03/05 03:42:52;;;;;;;50.80;23.10;;;;;;;-5.17;88.63;101816.03;10338616;28;20054;-84
2022/03/05 03:47:52;;;;;;;34.73;18.10;;;;;;;-4.97;89.00;101813.44;10331749;28;20133;-84
2022/03/05 03:52:54;;;;;;;46.43;23.03;;;;;;;-5.00;89.22;101818.16;10373376;28;20063;-84
2022/03/05 03:57:55;;;;;;;50.60;25.33;;;;;;;-5.04;89.80;101813.41;10317136;28;20038;-84
2022/03/05 04:02:55;;;;;;;52.50;27.67;;;;;;;-5.03;89.22;101808.47;10333963;28;20093;-85
2022/03/05 04:13:15;;;;;;;51.80;21.98;;;;;;;-5.16;89.58;101822.97;10375135;28;20083;-85
2022/03/05 04:18:15;;;;;;;46.10;21.30;;;;;;;-5.14;89.34;101828.28;10348429;28;20073;-85
2022/03/05 04:23:16;;;;;;;52.60;23.17;;;;;;;-5.03;88.80;101823.78;10315713;28;20062;-85
2022/03/05 04:28:16;;;;;;;49.80;25.53;;;;;;;-5.14;88.97;101828.28;10367378;28;20057;-84
2022/03/05 04:33:17;;;;;;;35.17;20.00;;;;;;;-5.03;89.34;101838.22;10318877;28;20418;-85
2022/03/05 04:38:17;;;;;;;59.50;22.57;;;;;;;-5.10;89.38;101836.50;10346226;28;20062;-85
2022/03/05 04:43:18;;;;;;;48.23;21.40;;;;;;;-5.21;89.01;101835.19;10355958;28;20477;-85
2022/03/05 04:48:18;;;;;;;52.53;22.60;;;;;;;-5.23;89.30;101835.69;10324437;28;20108;-85
2022/03/05 04:53:21;;;;;;;49.33;22.20;;;;;;;-5.24;89.44;101841.53;10300012;28;20062;-84
2022/03/05 04:58:22;;;;;;;47.13;25.52;;;;;;;-5.38;89.71;101842.34;10331068;28;20022;-85
2022/03/05 05:03:22;;;;;;;50.03;23.20;;;;;;;-5.40;89.29;101848.88;10316641;28;20078;-84
2022/03/05 05:08:23;;;;;;;52.13;25.03;;;;;;;-5.35;89.90;101847.84;10330811;28;20061;-85
2022/03/05 05:13:23;;;;;;;51.67;20.53;;;;;;;-5.32;89.94;101856.78;10343022;28;20505;-84
2022/03/05 05:18:24;;;;;;;42.67;22.87;;;;;;;-5.38;89.90;101863.66;10316198;28;20026;-84
2022/03/05 05:23:24;;;;;;;42.17;23.33;;;;;;;-5.39;89.48;101858.38;10322367;28;20104;-85
2022/03/05 05:28:25;;;;;;;47.93;22.37;;;;;;;-5.43;90.13;101856.16;10355181;28;20053;-84
2022/03/05 05:33:25;;;;;;;70.27;28.83;;;;;;;-5.33;89.81;101852.41;10360176;28;20118;-80
2022/03/05 05:38:26;;;;;;;52.37;27.10;;;;;;;-5.30;90.20;101862.09;10370198;28;20065;-80
2022/03/05 05:43:26;;;;;;;54.33;24.73;;;;;;;-5.38;90.01;101876.41;10334350;28;20093;-79
2022/03/05 05:48:27;;;;;;;57.60;25.27;;;;;;;-5.46;90.11;101874.53;10324857;28;20081;-80
2022/03/05 05:53:27;;;;;;;51.20;24.73;;;;;;;-5.51;89.74;101871.41;10294742;28;20031;-80
2022/03/05 05:58:28;;;;;;;46.37;22.60;;;;;;;-5.50;90.12;101874.84;10330146;28;20105;-80
2022/03/05 06:03:28;;;;;;;60.10;27.10;;;;;;;-5.51;90.10;101876.50;10313018;28;20110;-80
2022/03/05 06:08:29;;;;;;;61.27;30.90;;;;;;;-5.48;89.84;101878.50;10289134;28;20030;-81
2022/03/05 06:13:29;;;;;;;67.63;29.90;;;;;;;-5.48;90.19;101879.44;10314878;28;20105;-81
2022/03/05 06:18:30;;;;;;;46.73;20.13;;;;;;;-5.56;90.16;101876.63;10293993;28;20510;-81
2022/03/05 06:23:31;;;;;;;56.20;29.67;;;;;;;-5.52;90.14;101879.78;10288461;28;20269;-81
2022/03/05 06:28:32;;;;;;;75.63;31.48;;;;;;;-5.46;90.22;101875.47;10287027;28;20525;-81
2022/03/05 06:33:33;;;;;;;66.53;29.33;;;;;;;-5.34;90.21;101875.19;10323145;28;20065;-82
2022/03/05 06:38:33;;;;;;;61.80;29.63;;;;;;;-5.07;90.13;101876.84;10302545;28;20115;-80
2022/03/05 06:43:34;;;;;;;70.20;28.60;;;;;;;-4.83;89.99;101884.09;10302783;28;20069;-80
2022/03/05 06:48:34;;;;;;;52.43;29.00;;;;;;;-4.78;89.72;101882.16;10340647;28;20052;-80
2022/03/05 06:53:35;;;;;;;57.13;28.00;;;;;;;-4.67;90.10;101899.72;10326430;28;20027;-80
2022/03/05 06:58:35;;;;;;;51.37;28.70;;;;;;;-4.41;90.45;101891.84;10330365;28;20064;-81
2022/03/05 07:03:36;;;;;;;60.27;31.00;;;;;;;-3.97;90.12;101886.88;10310084;28;20066;-81
2022/03/05 07:08:36;;;;;;;64.03;28.60;;;;;;;-3.90;89.12;101890.34;10305041;28;20026;-80
2022/03/05 07:13:37;;;;;;;71.07;32.97;;;;;;;-3.00;90.09;101883.09;10345257;28;20101;-79
2022/03/05 07:18:39;;;;;;;68.67;33.90;;;;;;;-1.60;88.68;101883.63;10330360;28;20062;-81
2022/03/05 07:23:39;;;;;;;53.42;28.95;;;;;;;-0.23;78.88;101889.13;10339950;28;20034;-80
2022/03/05 07:28:40;;;;;;;46.17;23.20;;;;;;;0.85;73.65;101889.19;10307137;28;20030;-80
2022/03/05 07:33:40;;;;;;;47.00;24.70;;;;;;;1.43;72.60;101882.09;10363511;28;20101;-81
2022/03/05 07:38:44;;;;;;;51.70;26.77;;;;;;;2.28;67.34;101892.13;10339495;28;20442;-81
2022/03/05 07:43:44;;;;;;;39.25;23.05;;;;;;;2.21;65.88;101898.34;10354885;28;20069;-80
2022/03/05 07:48:45;;;;;;;44.47;24.40;;;;;;;1.96;68.51;101907.94;10336511;28;20478;-81
2022/03/05 07:53:45;;;;;;;46.88;26.55;;;;;;;1.89;68.91;101903.84;10317922;28;20035;-81
2022/03/05 07:58:46;;;;;;;50.17;25.83;;;;;;;1.48;71.53;101916.09;10317093;28;20439;-82
2022/03/05 08:03:47;;;;;;;55.35;25.38;;;;;;;1.26;70.27;101917.41;10284039;28;20044;-82
2022/03/05 08:08:47;;;;;;;47.83;28.80;;;;;;;1.09;69.15;101919.94;10296534;28;20030;-81
2022/03/05 08:13:48;;;;;;;48.45;28.60;;;;;;;1.02;70.42;101915.81;10319270;28;20050;-81
2022/03/05 08:18:48;;;;;;;49.85;30.38;;;;;;;1.13;69.35;101920.38;10355117;28;20050;-81
2022/03/05 08:23:49;;;;;;;44.58;28.33;;;;;;;1.23;70.18;101926.50;10318368;28;20037;-81
2022/03/05 08:28:49;;;;;;;44.42;26.92;;;;;;;1.51;69.72;101934.47;10373278;28;20121;-80
2022/03/05 08:33:50;;;;;;;46.97;27.27;;;;;;;1.70;67.89;101925.22;10340358;28;20029;-82
2022/03/05 08:38:50;;;;;;;43.15;24.80;;;;;;;1.81;69.07;101922.81;10323956;28;20040;-82
2022/03/05 08:43:51;;;;;;;48.55;31.40;;;;;;;2.17;67.03;101917.81;10330818;28;20065;-82
2022/03/05 08:48:52;;;;;;;56.30;27.95;;;;;;;2.30;65.78;101919.91;10299538;28;20038;-82
2022/03/05 08:53:53;;;;;;;51.67;28.33;;;;;;;2.59;64.52;101921.84;10324081;28;20038;-82
2022/03/05 08:58:53;;;;;;;73.78;43.22;;;;;;;2.74;63.42;101929.25;10357439;28;20481;-79
2022/03/05 09:03:54;;;;;;;47.00;28.67;;;;;;;3.06;64.68;101922.00;10346590;28;20168;-78
2022/03/05 09:08:55;;;;;;;49.47;27.95;;;;;;;3.51;65.15;101918.41;10325686;28;20069;-79
2022/03/05 09:13:58;;;;;;;48.80;26.67;;;;;;;3.91;62.17;101923.75;10317397;28;20375;-80
2022/03/05 09:18:58;;;;;;;47.22;26.05;;;;;;;4.34;60.93;101923.25;10328257;28;20030;-79
2022/03/05 09:23:59;;;;;;;49.70;29.65;;;;;;;4.44;60.54;101920.72;10347493;28;20482;-80
2022/03/05 09:28:59;;;;;;;54.60;28.13;;;;;;;4.36;58.29;101925.19;10345255;28;20192;-79
2022/03/05 09:34:00;;;;;;;51.05;29.80;;;;;;;4.19;59.01;101920.16;10346427;28;20075;-79
2022/03/05 09:39:00;;;;;;;47.72;25.50;;;;;;;4.65;58.28;101915.59;10317032;28;20458;-79
2022/03/05 09:44:01;;;;;;;48.70;27.23;;;;;;;6.47;51.97;101909.25;10355056;28;20053;-79
2022/03/05 09:49:02;;;;;;;43.47;23.60;;;;;;;9.41;46.00;101897.13;10318181;28;20048;-78
2022/03/05 09:54:03;;;;;;;42.63;25.08;;;;;;;12.74;39.19;101894.88;10313016;28;20079;-79
2022/03/05 09:59:05;;;;;;;41.53;24.20;;;;;;;14.28;35.62;101894.94;10323156;28;20562;-79
2022/03/05 10:04:06;;;;;;;42.60;25.67;;;;;;;15.61;32.33;101898.44;10329342;28;20042;-76
2022/03/05 10:09:06;;;;;;;39.15;22.80;;;;;;;16.31;31.15;101890.78;10330465;28;20038;-76
2022/03/05 10:14:17;;;;;;;40.28;22.70;;;;;;;15.84;31.96;101885.31;10310049;28;20061;-76
2022/03/05 10:19:21;;;;;;;39.65;23.40;;;;;;;16.36;30.62;101888.34;10322545;28;20476;-76
2022/03/05 10:24:39;;;;;;;45.17;22.98;;;;;;;15.77;30.79;101891.16;10344933;28;20176;-76
2022/03/05 10:29:39;;;;;;;38.22;23.55;;;;;;;16.57;29.66;101877.69;10362057;28;20381;-76
2022/03/05 10:34:48;;;;;;;30.20;20.60;;;;;;;17.10;28.77;101885.91;10364377;28;20040;-76
2022/03/05 10:39:49;;;;;;;35.20;23.33;;;;;;;16.89;30.57;101880.69;10358035;28;20054;-76
2022/03/05 10:45:03;;;;;;;38.33;20.92;;;;;;;16.35;29.46;101882.13;10311076;28;20140;-75
2022/03/05 10:50:20;;;;;;;35.95;21.50;;;;;;;15.62;29.78;101881.75;10337687;28;20038;-76
2022/03/05 10:55:25;;;;;;;38.78;22.92;;;;;;;15.66;33.07;101873.13;10336356;28;20026;-75
2022/03/05 11:00:26;;;;;;;38.38;23.55;;;;;;;16.63;28.99;101867.38;10333140;28;20128;-78
2022/03/05 11:05:27;;;;;;;34.78;22.92;;;;;;;16.79;27.83;101863.59;10329270;28;20045;-76
2022/03/05 11:10:29;;;;;;;33.40;19.88;;;;;;;17.41;26.57;101865.88;10317632;28;20065;-77
2022/03/05 11:15:30;;;;;;;35.75;20.95;;;;;;;15.96;29.93;101871.75;10337357;28;20026;-76
2022/03/05 11:20:31;;;;;;;33.63;21.20;;;;;;;16.53;28.47;101860.84;10337551;28;20034;-77
2022/03/05 11:25:33;;;;;;;31.08;20.10;;;;;;;16.77;29.40;101874.94;10322837;28;20057;-77
2022/03/05 11:30:43;;;;;;;37.60;21.92;;;;;;;18.03;26.86;101869.72;10312910;28;20442;-76
2022/03/05 11:35:44;;;;;;;40.45;22.20;;;;;;;18.56;26.29;101859.03;10332369;28;20119;-76
2022/03/05 11:40:44;;;;;;;39.13;22.48;;;;;;;18.31;25.73;101867.97;10316594;28;20114;-76
2022/03/05 11:45:58;;;;;;;31.83;20.40;;;;;;;19.18;24.16;101859.94;10351104;28;20113;-77
2022/03/05 11:51:01;;;;;;;47.08;23.40;;;;;;;18.15;25.89;101850.69;10337696;28;20034;-77
2022/03/05 11:56:24;;;;;;;35.92;21.45;;;;;;;19.15;24.54;101844.88;10338168;28;20117;-75
2022/03/05 12:01:42;;;;;;;35.05;21.50;;;;;;;19.20;26.24;101837.94;10346767;28;20034;-76
2022/03/05 12:06:46;;;;;;;33.90;22.15;;;;;;;19.19;25.98;101840.53;10326393;28;20038;-76
2022/03/05 12:11:56;;;;;;;31.05;20.33;;;;;;;18.86;26.56;101838.69;10339718;28;20025;-76
2022/03/05 12:17:07;;;;;;;32.00;20.17;;;;;;;19.75;24.28;101821.66;10322738;28;20072;-76
2022/03/05 12:22:12;;;;;;;36.17;21.30;;;;;;;20.45;22.65;101815.31;10302508;28;20105;-76
2022/03/05 12:27:14;;;;;;;35.10;20.75;;;;;;;18.32;25.14;101824.72;10315886;28;20494;-77
2022/03/05 12:32:15;;;;;;;30.35;21.67;;;;;;;18.91;24.77;101826.44;10316621;28;20407;-77
2022/03/05 12:37:16;;;;;;;35.65;21.48;;;;;;;18.55;26.32;101824.53;10332658;28;20034;-76
2022/03/05 12:42:17;;;;;;;31.83;20.93;;;;;;;19.71;24.26;101814.47;10332975;28;20030;-77
2022/03/05 12:47:17;;;;;;;36.53;21.10;;;;;;;19.80;24.95;101812.03;10282931;28;20074;-77
2022/03/05 12:52:18;;;;;;;36.50;22.23;;;;;;;19.29;24.32;101809.84;10311331;28;20070;-76
2022/03/05 12:57:18;;;;;;;40.00;26.77;;;;;;;19.07;26.41;101815.44;10368212;28;20049;-76
2022/03/05 13:02:19;;;;;;;32.80;19.70;;;;;;;18.86;25.46;101818.38;10337392;28;20061;-75
2022/03/05 13:07:34;;;;;;;36.00;20.30;;;;;;;18.74;26.43;101805.66;10346416;28;20068;-76
2022/03/05 13:12:38;;;;;;;33.65;21.33;;;;;;;19.19;26.55;101806.94;10354635;28;20037;-76
2022/03/05 13:17:45;;;;;;;37.15;21.90;;;;;;;17.46;27.56;101815.75;10311950;28;20034;-76
2022/03/05 13:22:47;;;;;;;30.30;20.48;;;;;;;18.65;26.95;101800.09;10316194;28;20109;-76
2022/03/05 13:27:47;;;;;;;34.90;23.00;;;;;;;18.47;26.14;101798.69;10319976;28;20062;-76
2022/03/05 13:32:49;;;;;;;32.80;20.27;;;;;;;19.13;26.04;101795.25;10330068;28;20108;-76
2022/03/05 13:37:49;;;;;;;35.77;22.13;;;;;;;18.48;24.59;101787.22;10327262;28;20387;-75
2022/03/05 13:42:55;;;;;;;37.05;22.63;;;;;;;19.29;24.23;101784.19;10351079;28;20121;-76
2022/03/05 13:47:56;;;;;;;30.33;21.17;;;;;;;19.40;23.97;101783.56;10324899;28;20152;-76
2022/03/05 13:52:58;;;;;;;37.58;26.02;;;;;;;18.71;25.26;101784.34;10313782;28;20391;-76
2022/03/05 13:57:58;;;;;;;;;;;;;;;18.83;24.37;101780.25;10329006;28;20041;-75
2022/03/05 14:02:59;;;;;;;28.88;19.67;;;;;;;18.12;24.44;101795.84;10336379;28;20007;-76
2022/03/05 14:08:02;;;;;;;28.60;19.95;;;;;;;17.69;24.50;101797.09;10361332;28;20398;-76
2022/03/05 14:13:02;;;;;;;33.25;19.33;;;;;;;17.80;25.57;101789.50;10339244;28;20026;-76
2022/03/05 14:18:04;;;;;;;33.90;22.05;;;;;;;18.45;24.35;101792.44;10354137;28;20482;-75
2022/03/05 14:23:06;;;;;;;28.85;19.30;;;;;;;18.49;25.85;101786.38;10341414;28;20030;-76
2022/03/05 14:28:17;;;;;;;32.85;22.55;;;;;;;18.17;25.82;101785.41;10333019;28;20383;-77
2022/03/05 14:33:17;;;;;;;30.63;19.83;;;;;;;17.89;24.96;101789.81;10310731;28;20689;-78
2022/03/05 14:38:18;;;;;;;37.05;20.83;;;;;;;17.11;26.13;101787.22;10326976;28;20030;-78
2022/03/05 14:43:19;;;;;;;32.42;21.58;;;;;;;17.10;27.56;101773.94;10316172;28;20494;-76
2022/03/05 14:48:19;;;;;;;34.88;20.25;;;;;;;17.00;26.98;101784.19;10354271;28;20045;-77
2022/03/05 14:53:20;;;;;;;31.05;21.35;;;;;;;17.14;27.85;101776.75;10353583;28;20141;-78
2022/03/05 14:58:20;;;;;;;34.17;21.02;;;;;;;16.78;28.60;101785.13;10334232;28;20037;-76
2022/03/05 15:03:22;;;;;;;33.97;21.40;;;;;;;17.06;26.30;101782.59;10376341;28;20033;-78
2022/03/05 15:08:23;;;;;;;37.13;24.17;;;;;;;17.09;27.09;101780.06;10361229;28;20100;-78
2022/03/05 15:13:23;;;;;;;34.10;20.58;;;;;;;16.96;28.03;101784.00;10375167;28;20041;-79
2022/03/05 15:18:24;;;;;;;33.72;20.17;;;;;;;16.01;28.81;101775.16;10359028;28;20033;-77
2022/03/05 15:23:24;;;;;;;32.90;23.02;;;;;;;15.65;29.16;101770.16;10359843;28;20165;-77
2022/03/05 15:28:25;;;;;;;35.15;22.38;;;;;;;15.07;31.31;101777.38;10358539;28;20060;-77
2022/03/05 15:33:26;;;;;;;43.75;24.02;;;;;;;14.24;31.34;101775.41;10342133;28;20068;-76
2022/03/05 15:38:26;;;;;;;37.40;21.55;;;;;;;12.17;33.62;101787.63;10375569;28;20061;-77
2022/03/05 15:43:27;;;;;;;37.83;21.05;;;;;;;11.33;36.16;101785.44;10358239;28;20030;-77
2022/03/05 15:48:27;;;;;;;40.08;23.67;;;;;;;10.54;38.01;101783.31;10341675;28;20069;-77
2022/03/05 15:53:28;;;;;;;38.08;21.98;;;;;;;10.20;38.03;101786.38;10374691;28;20030;-77
2022/03/05 15:58:28;;;;;;;40.85;23.83;;;;;;;9.87;38.24;101783.41;10374877;28;20053;-79
2022/03/05 16:03:29;;;;;;;39.05;22.73;;;;;;;9.47;41.19;101792.13;10358061;28;20030;-78
2022/03/05 16:08:30;;;;;;;46.35;24.85;;;;;;;8.87;42.04;101792.47;10340638;28;20061;-77
2022/03/05 16:13:31;;;;;;;37.53;22.52;;;;;;;8.56;42.67;101797.22;10358199;28;20025;-77
2022/03/05 16:18:31;;;;;;;33.47;21.40;;;;;;;7.94;45.03;101805.03;10375123;28;20054;-76
2022/03/05 16:23:32;;;;;;;40.13;21.13;;;;;;;7.31;46.66;101798.63;10356535;28;20030;-79
2022/03/05 16:28:32;;;;;;;37.35;24.02;;;;;;;6.86;48.81;101799.53;10315917;28;20019;-77
2022/03/05 16:33:33;;;;;;;42.35;22.65;;;;;;;6.40;48.59;101804.63;10311461;28;20795;-76
2022/03/05 16:38:33;;;;;;;36.20;21.40;;;;;;;6.14;49.80;101801.75;10361834;28;20039;-77
2022/03/05 16:43:36;;;;;;;39.70;21.83;;;;;;;5.76;51.64;101811.59;10352794;28;20629;-78
2022/03/05 16:48:36;;;;;;;;;;;;;;;5.36;53.74;101816.97;10347284;28;20069;-80
2022/03/05 16:53:37;;;;;;;37.22;21.88;;;;;;;4.93;55.94;101817.75;10346512;28;19960;-84
2022/03/05 16:58:37;;;;;;;48.88;25.42;;;;;;;4.43;57.85;101824.63;10352500;28;20041;-77
2022/03/05 17:03:38;;;;;;;37.78;23.20;;;;;;;3.96;59.13;101825.72;10347319;28;20169;-78
2022/03/05 17:08:38;;;;;;;43.78;20.77;;;;;;;3.59;60.00;101830.19;10348613;28;20454;-80
2022/03/05 17:13:39;;;;;;;39.50;21.92;;;;;;;3.34;60.29;101826.25;10352069;28;20058;-85
2022/03/05 17:18:40;;;;;;;38.70;25.58;;;;;;;3.10;62.79;101830.06;10357698;28;20026;-82
2022/03/05 17:23:41;;;;;;;35.07;20.73;;;;;;;2.87;61.03;101836.56;10335730;28;20045;-82
2022/03/05 17:28:42;;;;;;;36.55;23.35;;;;;;;2.77;61.92;101839.97;10313022;28;20289;-82
2022/03/05 17:33:44;;;;;;;38.40;22.83;;;;;;;2.52;63.17;101839.31;10332446;28;20022;-82
2022/03/05 17:38:44;;;;;;;38.10;24.13;;;;;;;2.12;63.28;101854.47;10330036;28;20042;-82
2022/03/05 17:43:44;;;;;;;38.33;20.48;;;;;;;1.84;64.07;101856.91;10330765;28;20026;-84
2022/03/05 17:48:45;;;;;;;39.50;23.90;;;;;;;1.60;64.97;101858.91;10344750;28;20128;-83
2022/03/05 17:53:46;;;;;;;42.45;23.25;;;;;;;1.44;66.76;101865.84;10344739;28;20378;-81
2022/03/05 17:58:46;;;;;;;40.97;22.33;;;;;;;1.04;67.60;101882.44;10331888;28;20036;-81
2022/03/05 18:03:47;;;;;;;36.75;20.73;;;;;;;0.77;70.02;101882.34;10331629;28;20426;-82
2022/03/05 18:08:47;;;;;;;40.45;24.58;;;;;;;0.58;72.31;101885.59;10353797;28;20117;-80
2022/03/05 18:13:48;;;;;;;36.83;22.15;;;;;;;0.36;71.89;101887.59;10312600;28;20117;-83
2022/03/05 18:18:49;;;;;;;35.80;20.95;;;;;;;0.09;72.66;101888.16;10328450;28;20070;-79
2022/03/05 18:23:49;;;;;;;33.03;19.20;;;;;;;0.03;74.01;101890.06;10327843;28;20501;-83
2022/03/05 18:28:51;;;;;;;41.70;22.50;;;;;;;-0.02;74.78;101902.47;10335348;28;20123;-83
2022/03/05 18:33:52;;;;;;;43.22;24.38;;;;;;;-0.19;74.29;101904.16;10347676;28;20295;-79
2022/03/05 18:38:52;;;;;;;41.42;23.98;;;;;;;-0.36;74.14;101904.00;10309327;28;20117;-81
2022/03/05 18:43:53;;;;;;;40.80;22.52;;;;;;;-0.57;74.59;101906.06;10331071;28;20061;-82
2022/03/05 18:48:53;;;;;;;37.58;22.08;;;;;;;-0.76;75.37;101914.34;10308745;28;20439;-80
2022/03/05 18:53:54;;;;;;;40.38;23.98;;;;;;;-0.91;75.65;101926.41;10313002;28;20045;-81
2022/03/05 18:58:55;;;;;;;36.85;19.98;;;;;;;-0.98;77.61;101923.88;10317528;28;20041;-78
2022/03/05 19:03:55;;;;;;;35.90;21.33;;;;;;;-1.21;77.73;101913.63;10336025;28;20390;-81
2022/03/05 19:08:56;;;;;;;40.40;21.95;;;;;;;-1.39;77.79;101926.25;10299316;28;20029;-80
2022/03/05 19:13:56;;;;;;;33.00;20.02;;;;;;;-1.56;77.95;101920.88;10297113;28;20121;-81
2022/03/05 19:18:57;;;;;;;37.63;23.30;;;;;;;-1.69;78.35;101921.09;10311108;28;20447;-81
2022/03/05 19:23:57;;;;;;;31.15;18.15;;;;;;;-1.84;78.64;101921.19;10305006;28;20449;-81
2022/03/05 19:28:59;;;;;;;43.95;23.67;;;;;;;-1.72;80.07;101934.53;10300597;28;20081;-82
2022/03/05 19:34:00;;;;;;;41.00;22.23;;;;;;;-1.48;79.14;101938.06;10296481;28;20030;-83
2022/03/05 19:39:00;;;;;;;40.25;21.85;;;;;;;-1.65;79.49;101939.63;10314898;28;20085;-81
2022/03/05 19:44:01;;;;;;;37.83;22.00;;;;;;;-1.77;79.43;101933.97;10313431;28;20535;-80
2022/03/05 19:49:02;;;;;;;48.38;26.38;;;;;;;-1.92;80.34;101946.00;10323308;28;20470;-81
2022/03/05 19:54:03;;;;;;;52.57;27.13;;;;;;;-1.89;80.91;101942.84;10336821;28;20038;-81
2022/03/05 19:59:03;;;;;;;49.90;24.48;;;;;;;-1.98;81.01;101950.41;10333234;28;20113;-83
2022/03/05 20:04:04;;;;;;;36.28;23.55;;;;;;;-2.17;81.00;101944.78;10333130;28;20169;-80
2022/03/05 20:09:04;;;;;;;41.92;26.73;;;;;;;-2.27;81.48;101945.41;10328463;28;20029;-81
2022/03/05 20:14:05;;;;;;;34.60;18.33;;;;;;;-2.34;82.32;101952.19;10312386;28;20137;-81
2022/03/05 20:19:05;;;;;;;39.97;21.13;;;;;;;-2.35;82.67;101953.84;10351676;28;20367;-80
2022/03/05 20:24:06;;;;;;;39.93;20.90;;;;;;;-2.47;82.79;101950.75;10321491;28;20130;-80
2022/03/05 20:29:07;;;;;;;54.43;26.60;;;;;;;-2.57;82.94;101948.78;10332904;28;20044;-81
2022/03/05 20:34:08;;;;;;;46.80;22.48;;;;;;;-2.56;83.47;101962.47;10317464;28;20026;-81
2022/03/05 20:39:08;;;;;;;31.83;20.13;;;;;;;-2.63;82.94;101959.94;10305525;28;20031;-81
2022/03/05 20:44:09;;;;;;;36.38;22.92;;;;;;;-2.68;83.96;101968.00;10356514;28;20422;-81
2022/03/05 20:49:10;;;;;;;32.50;19.93;;;;;;;-2.69;84.08;101976.41;10339886;28;20030;-81
2022/03/05 20:54:10;;;;;;;40.70;23.00;;;;;;;-2.80;84.48;101974.22;10349161;28;20033;-80
2022/03/05 20:59:11;;;;;;;39.17;21.40;;;;;;;-2.85;84.67;101980.44;10314810;28;20041;-81
2022/03/05 21:04:11;;;;;;;47.38;24.17;;;;;;;-2.90;84.89;101990.16;10339194;28;20187;-80
2022/03/05 21:09:12;;;;;;;51.00;27.97;;;;;;;-3.06;84.90;101991.63;10338467;28;20127;-81
2022/03/05 21:14:12;;;;;;;43.27;24.77;;;;;;;-3.13;85.32;101997.63;10331125;28;20109;-81
2022/03/05 21:19:13;;;;;;;43.17;25.50;;;;;;;-3.23;85.01;101993.06;10330127;28;20108;-80
2022/03/05 21:24:15;;;;;;;36.43;16.90;;;;;;;-3.17;85.73;101996.38;10336976;28;20100;-80
2022/03/05 21:29:15;;;;;;;40.88;27.55;;;;;;;-3.21;85.61;102001.84;10357164;28;20022;-81
2022/03/05 21:34:16;;;;;;;36.20;20.30;;;;;;;-3.27;85.74;102004.56;10348313;28;20072;-81
2022/03/05 21:39:17;;;;;;;42.60;25.93;;;;;;;-3.31;85.97;102009.16;10312887;28;20113;-82
2022/03/05 21:44:19;;;;;;;78.13;39.77;;;;;;;-3.28;85.81;102009.53;10338176;28;20034;-79
2022/03/05 21:49:19;;;;;;;58.45;28.10;;;;;;;-3.30;86.08;102017.00;10333694;28;20066;-80
2022/03/05 21:54:21;;;;;;;51.75;27.85;;;;;;;-3.25;85.98;102021.03;10298252;28;20073;-80
2022/03/05 21:59:21;;;;;;;37.93;21.17;;;;;;;-3.21;85.91;102018.84;10352422;28;20042;-80
2022/03/05 22:04:22;;;;;;;44.57;27.43;;;;;;;-3.18;85.61;102014.09;10355082;28;20113;-79
2022/03/05 22:09:22;;;;;;;49.10;28.67;;;;;;;-3.16;85.51;102015.19;10334010;28;20565;-80
2022/03/05 22:14:23;;;;;;;55.63;28.37;;;;;;;-3.14;85.34;102030.03;10313951;28;20042;-79
2022/03/05 22:19:23;;;;;;;31.47;19.27;;;;;;;-3.17;85.03;102019.41;10329376;28;20556;-79
2022/03/05 22:24:24;;;;;;;44.00;25.27;;;;;;;-3.19;84.97;102037.88;10359460;28;20050;-79
2022/03/05 22:29:24;;;;;;;45.33;29.07;;;;;;;-3.38;84.85;102045.88;10346598;28;20033;-79
2022/03/05 22:34:25;;;;;;;55.07;26.43;;;;;;;-3.51;84.81;102043.47;10353396;28;20497;-79
2022/03/05 22:39:25;;;;;;;53.77;24.43;;;;;;;-3.67;85.04;102048.34;10335381;28;20120;-79
2022/03/05 22:44:26;;;;;;;43.87;25.37;;;;;;;-3.78;85.28;102053.75;10335614;28;20387;-79